Knight, Indiana
Current Conditions -  °F | °C
As of 7:54 AM on Monday 20 Oct 2014 (Local Time) from KEVV Reporting Station
Broken Clouds Broken Clouds  
Wind Chill: 52°   Ceiling: 11000
Heat Index: 52°   Visibility: 10mi
Dew Point: 47°   Wind: 8mph
Humidity: 83%   Direction: 210°SSW
Pressure: 30.02"   Gusts: NA
Location:  38.0153°N, 87.5343°W
Report Text: KEVV 201254Z 21007KT 10SM BKN110 11/08 A3002 RMK AO2 SLP166 T01110083
Loading
Personal Weather Stations






























Interactive Weather Map New forecast layout! Learn more

10-Day Weather Forecast

Advertisements
Track Severe Weather on mobile